Time;durP1;ratioP1;P1;durP2;ratioP2;P2;SDS_P1;SDS_P2;PMS_P1;PMS_P2;Temp;Humidity;BMP_temperature;BMP_pressure;BME280_temperature;BME280_humidity;BME280_pressure;Samples;Min_cycle;Max_cycle;Signal;HPM_P1;HPM_P2
2022/04/16 00:01:05;;;;;;;29.47;17.30;;;11.70;68.50;;;;;;5020855;28;20473;-71
2022/04/16 00:03:33;;;;;;;21.83;11.83;;;11.70;68.50;;;;;;5019327;28;20946;-72
2022/04/16 00:06:02;;;;;;;11.40;7.03;;;11.70;68.50;;;;;;5019582;28;20807;-71
2022/04/16 00:08:31;;;;;;;9.57;6.53;;;11.70;68.60;;;;;;5019005;28;20468;-70
2022/04/16 00:11:00;;;;;;;9.23;6.20;;;11.80;68.60;;;;;;5019776;28;20459;-72
2022/04/16 00:13:29;;;;;;;10.47;6.20;;;11.80;68.60;;;;;;5020753;28;20952;-72
2022/04/16 00:15:57;;;;;;;10.20;6.27;;;11.70;68.60;;;;;;5017448;28;20476;-71
2022/04/16 00:18:26;;;;;;;9.17;5.93;;;11.70;68.70;;;;;;5017981;28;20452;-71
2022/04/16 00:20:56;;;;;;;8.10;5.53;;;11.70;68.90;;;;;;5015040;28;20981;-70
2022/04/16 00:23:26;;;;;;;9.67;6.20;;;11.70;69.00;;;;;;5015390;28;20526;-72
2022/04/16 00:25:56;;;;;;;10.73;6.80;;;11.70;69.00;;;;;;5010737;28;20464;-71
2022/04/16 00:28:26;;;;;;;9.33;6.60;;;11.60;69.00;;;;;;5015183;28;20824;-72
2022/04/16 00:30:56;;;;;;;8.20;5.60;;;11.70;69.10;;;;;;5014202;28;20488;-71
2022/04/16 00:33:26;;;;;;;8.77;5.87;;;11.70;69.20;;;;;;5019339;28;20482;-71
2022/04/16 00:35:54;;;;;;;8.70;5.30;;;11.70;69.20;;;;;;5019415;28;20586;-70
2022/04/16 00:38:22;;;;;;;8.67;5.77;;;11.70;69.30;;;;;;5015252;28;20459;-72
2022/04/16 00:40:52;;;;;;;7.97;5.00;;;11.70;69.30;;;;;;5017637;28;20472;-71
2022/04/16 00:43:27;;;;;;;7.93;5.37;;;11.70;69.40;;;;;;5019952;28;20535;-71
2022/04/16 00:45:55;;;;;;;8.97;5.53;;;11.70;69.50;;;;;;5017357;28;21083;-71
2022/04/16 00:48:24;;;;;;;9.60;5.53;;;11.70;69.60;;;;;;5015626;28;20518;-71
2022/04/16 00:50:54;;;;;;;7.30;5.10;;;11.80;69.70;;;;;;5017692;28;20792;-71
2022/04/16 00:53:25;;;;;;;10.53;4.90;;;11.80;69.80;;;;;;5017197;28;20838;-71
2022/04/16 00:55:53;;;;;;;7.93;4.77;;;11.80;69.90;;;;;;5015412;28;21037;-71
2022/04/16 00:58:21;;;;;;;7.03;4.00;;;11.90;70.00;;;;;;5015740;28;20472;-71
2022/04/16 01:00:50;;;;;;;6.07;3.50;;;11.90;70.00;;;;;;5013276;28;20504;-71
2022/04/16 01:03:19;;;;;;;6.30;3.93;;;11.90;70.00;;;;;;5017094;28;20480;-71
2022/04/16 01:05:47;;;;;;;8.00;4.20;;;11.90;69.80;;;;;;5016809;28;20467;-71
2022/04/16 01:08:19;;;;;;;7.90;4.30;;;11.90;69.90;;;;;;5018451;28;20502;-71
2022/04/16 01:10:46;;;;;;;6.60;4.17;;;11.90;70.00;;;;;;5017476;28;20477;-70
2022/04/16 01:13:15;;;;;;;5.80;3.97;;;11.90;70.00;;;;;;5021231;28;20496;-70
2022/04/16 01:15:43;;;;;;;9.13;4.27;;;11.90;70.10;;;;;;5021195;28;20477;-71
2022/04/16 01:18:13;;;;;;;6.40;4.00;;;11.90;70.10;;;;;;5018402;28;20464;-71
2022/04/16 01:20:41;;;;;;;5.73;3.73;;;11.90;70.10;;;;;;5016496;28;20478;-70
2022/04/16 01:23:11;;;;;;;6.43;3.97;;;12.00;70.10;;;;;;5015887;28;20536;-71
2022/04/16 01:25:39;;;;;;;6.77;4.00;;;12.00;70.20;;;;;;5010321;28;20461;-72
2022/04/16 01:28:07;;;;;;;6.40;4.37;;;12.00;70.30;;;;;;5012472;28;20970;-71
2022/04/16 01:30:35;;;;;;;5.70;3.80;;;12.00;70.30;;;;;;5012548;28;20463;-71
2022/04/16 01:33:03;;;;;;;6.27;4.00;;;12.00;70.30;;;;;;5014930;28;21203;-71
2022/04/16 01:35:32;;;;;;;13.13;8.03;;;12.00;70.30;;;;;;5014125;28;20573;-72
2022/04/16 01:38:04;;;;;;;18.57;12.30;;;12.00;70.30;;;;;;5015036;28;20488;-72
2022/04/16 01:40:33;;;;;;;18.93;11.60;;;12.10;70.40;;;;;;5013125;28;20467;-71
2022/04/16 01:43:01;;;;;;;19.00;12.13;;;12.00;70.50;;;;;;5017726;28;20518;-71
2022/04/16 01:45:30;;;;;;;21.60;13.60;;;11.90;70.70;;;;;;5015688;28;21035;-71
2022/04/16 01:47:59;;;;;;;19.13;12.67;;;11.90;70.90;;;;;;5012329;28;20491;-71
2022/04/16 01:50:27;;;;;;;18.30;12.00;;;11.90;71.00;;;;;;5012706;28;21303;-71
2022/04/16 01:52:55;;;;;;;17.67;11.33;;;11.80;71.30;;;;;;5017299;28;20490;-71
2022/04/16 01:55:23;;;;;;;12.87;9.00;;;11.80;71.40;;;;;;5012739;28;20495;-71
2022/04/16 01:57:53;;;;;;;18.43;10.43;;;11.90;71.50;;;;;;5015565;28;20460;-71
2022/04/16 02:00:23;;;;;;;15.10;9.97;;;11.90;71.60;;;;;;5016748;28;20460;-71
2022/04/16 02:02:51;;;;;;;17.43;10.73;;;11.90;71.60;;;;;;5015885;28;20879;-71
2022/04/16 02:05:19;;;;;;;11.63;8.30;;;11.90;71.90;;;;;;5015794;28;20460;-71
2022/04/16 02:07:48;;;;;;;17.70;11.47;;;11.90;71.80;;;;;;5008968;28;20457;-71
2022/04/16 02:10:17;;;;;;;25.10;16.10;;;11.90;72.00;;;;;;5015250;28;20825;-71
2022/04/16 02:12:46;;;;;;;15.77;10.80;;;11.90;72.00;;;;;;5013943;28;20490;-71
2022/04/16 02:15:15;;;;;;;15.50;10.70;;;11.90;72.10;;;;;;5019487;28;20468;-70
2022/04/16 02:17:43;;;;;;;22.37;13.87;;;11.90;72.10;;;;;;5015765;28;20453;-70
2022/04/16 02:20:11;;;;;;;20.70;13.73;;;11.90;72.20;;;;;;5013238;28;20457;-70
2022/04/16 02:22:41;;;;;;;19.20;12.57;;;11.90;72.30;;;;;;5017103;28;20511;-70
2022/04/16 02:25:10;;;;;;;17.10;11.27;;;11.90;72.30;;;;;;5012103;28;20453;-71
2022/04/16 02:27:38;;;;;;;14.03;9.40;;;11.90;72.50;;;;;;5015890;28;20463;-71
2022/04/16 02:30:08;;;;;;;13.97;8.60;;;11.90;72.40;;;;;;5017583;28;20547;-71
2022/04/16 02:32:38;;;;;;;12.90;8.20;;;11.90;72.40;;;;;;5019370;28;20533;-71
2022/04/16 02:35:07;;;;;;;14.03;8.47;;;11.90;72.60;;;;;;5015849;28;21188;-71
2022/04/16 02:37:35;;;;;;;20.73;12.93;;;11.90;72.70;;;;;;5013844;28;21170;-71
2022/04/16 02:40:04;;;;;;;14.37;10.13;;;12.00;72.60;;;;;;5017738;28;20471;-71
2022/04/16 02:42:34;;;;;;;11.03;7.40;;;12.00;72.60;;;;;;5018722;28;20506;-71
2022/04/16 02:47:49;;;;;;;17.80;10.70;;;12.10;72.70;;;;;;5018808;28;20475;-71
2022/04/16 02:50:17;;;;;;;16.20;10.07;;;12.10;72.70;;;;;;5020944;28;20515;-71
2022/04/16 02:52:46;;;;;;;14.97;9.97;;;12.10;72.80;;;;;;5015964;28;20481;-70
2022/04/16 02:55:15;;;;;;;15.23;9.90;;;12.10;72.70;;;;;;5018968;28;20502;-70
2022/04/16 02:57:43;;;;;;;11.03;7.30;;;12.10;72.80;;;;;;5020005;28;20471;-70
2022/04/16 03:00:12;;;;;;;20.70;11.67;;;12.10;72.80;;;;;;5024532;28;20473;-71
2022/04/16 03:02:40;;;;;;;12.20;8.07;;;12.10;72.80;;;;;;5021831;28;20479;-71
2022/04/16 03:05:11;;;;;;;11.90;7.83;;;12.10;72.90;;;;;;5019998;28;20460;-71
2022/04/16 03:07:40;;;;;;;9.97;6.37;;;12.10;72.90;;;;;;5021855;28;20502;-71
2022/04/16 03:10:09;;;;;;;11.53;7.83;;;12.00;72.80;;;;;;5021188;28;20457;-71
2022/04/16 03:12:48;;;;;;;12.53;7.70;;;12.00;72.90;;;;;;5016339;28;21198;-71
2022/04/16 03:18:03;;;;;;;17.33;10.20;;;12.10;72.90;;;;;;5021669;28;22622;-71
2022/04/16 03:20:32;;;;;;;13.70;9.20;;;12.00;72.90;;;;;;5017468;28;20461;-71
2022/04/16 03:23:02;;;;;;;14.90;9.13;;;12.00;73.00;;;;;;5020577;28;20493;-71
2022/04/16 03:25:30;;;;;;;14.73;8.83;;;12.00;72.90;;;;;;5019382;28;20526;-70
2022/04/16 03:27:59;;;;;;;15.00;9.93;;;12.00;73.00;;;;;;5022538;28;21210;-70
2022/04/16 03:30:27;;;;;;;11.53;6.00;;;12.00;73.00;;;;;;5019894;28;20458;-71
2022/04/16 03:32:55;;;;;;;19.57;11.20;;;12.00;73.00;;;;;;5024543;28;20495;-70
2022/04/16 03:35:24;;;;;;;18.10;11.87;;;12.00;73.00;;;;;;5021853;28;21104;-71
2022/04/16 03:37:55;;;;;;;8.33;5.13;;;12.00;73.10;;;;;;5019152;28;20473;-72
2022/04/16 03:40:26;;;;;;;13.03;8.37;;;11.90;73.00;;;;;;5017758;28;20989;-71
2022/04/16 03:42:56;;;;;;;13.93;7.00;;;11.90;73.00;;;;;;5018840;28;20485;-72
2022/04/16 03:45:25;;;;;;;12.77;7.47;;;11.90;73.00;;;;;;5015181;28;20498;-72
2022/04/16 03:47:56;;;;;;;15.80;9.00;;;11.80;72.90;;;;;;5013353;28;20484;-71
2022/04/16 03:50:25;;;;;;;11.13;7.23;;;11.80;72.90;;;;;;5011985;28;20831;-71
2022/04/16 03:52:56;;;;;;;14.40;9.30;;;11.70;72.90;;;;;;5015173;28;20486;-72
2022/04/16 04:00:58;;;;;;;13.93;8.90;;;11.60;73.20;;;;;;5011348;28;20522;-72
2022/04/16 04:03:26;;;;;;;14.17;9.37;;;11.50;73.30;;;;;;5020076;28;20542;-70
2022/04/16 04:05:56;;;;;;;11.23;7.90;;;11.50;73.20;;;;;;5015106;28;20816;-70
2022/04/16 04:08:26;;;;;;;11.70;7.80;;;11.50;73.20;;;;;;5013910;28;20455;-71
2022/04/16 04:10:54;;;;;;;12.40;8.30;;;11.40;73.30;;;;;;5012859;28;20471;-71
2022/04/16 04:13:23;;;;;;;12.43;8.10;;;11.40;73.30;;;;;;5018772;28;20487;-70
2022/04/16 04:15:52;;;;;;;16.03;9.43;;;11.30;73.40;;;;;;5016464;28;20477;-71
2022/04/16 04:18:22;;;;;;;13.33;8.20;;;11.30;73.50;;;;;;5014198;28;20976;-71
2022/04/16 04:20:50;;;;;;;11.43;7.10;;;11.30;73.50;;;;;;5012915;28;21023;-70
2022/04/16 04:23:18;;;;;;;12.60;7.87;;;11.30;73.50;;;;;;5013731;28;21461;-70
2022/04/16 04:25:48;;;;;;;13.17;8.90;;;11.30;73.50;;;;;;5012456;28;20460;-70
2022/04/16 04:28:16;;;;;;;15.37;9.53;;;11.20;73.50;;;;;;5014136;28;20460;-70
2022/04/16 04:30:43;;;;;;;11.83;7.87;;;11.20;73.50;;;;;;5016006;28;20546;-71
2022/04/16 04:33:11;;;;;;;11.40;8.33;;;11.20;73.60;;;;;;5018148;28;20495;-71
2022/04/16 04:35:39;;;;;;;16.73;10.73;;;11.20;73.70;;;;;;5016326;28;20516;-70
2022/04/16 04:38:07;;;;;;;11.93;8.70;;;11.20;73.80;;;;;;5018360;28;20537;-71
2022/04/16 04:40:35;;;;;;;16.20;9.47;;;11.20;73.70;;;;;;4978366;28;1046382;-70
2022/04/16 04:43:05;;;;;;;22.73;12.47;;;11.20;73.60;;;;;;5012938;28;20234;-70
2022/04/16 04:45:33;;;;;;;13.37;8.57;;;11.10;73.60;;;;;;5017355;28;20547;-70
2022/04/16 04:48:01;;;;;;;10.20;7.63;;;11.10;73.50;;;;;;5014151;28;20460;-70
2022/04/16 04:50:29;;;;;;;11.27;8.13;;;11.00;73.50;;;;;;5018828;28;20483;-70
2022/04/16 04:52:57;;;;;;;11.57;7.50;;;11.00;73.40;;;;;;5016295;28;20489;-70
2022/04/16 04:55:25;;;;;;;10.03;7.40;;;11.00;73.40;;;;;;5015816;28;20471;-70
2022/04/16 04:57:54;;;;;;;16.00;9.17;;;10.90;73.30;;;;;;5017834;28;20475;-70
2022/04/16 05:00:24;;;;;;;12.13;8.23;;;10.90;73.30;;;;;;5017213;28;20448;-70
2022/04/16 05:02:52;;;;;;;11.20;7.40;;;10.90;73.20;;;;;;5014077;28;20481;-70
2022/04/16 05:05:20;;;;;;;12.87;8.10;;;10.90;73.30;;;;;;5017457;28;21273;-70
2022/04/16 05:07:48;;;;;;;13.30;9.60;;;10.90;73.30;;;;;;5021157;28;20461;-70
2022/04/16 05:10:16;;;;;;;21.30;12.60;;;10.90;73.20;;;;;;5019570;28;20462;-71
2022/04/16 05:12:44;;;;;;;18.40;11.70;;;10.90;73.10;;;;;;5014815;28;20492;-70
2022/04/16 05:15:12;;;;;;;15.50;10.17;;;10.90;73.10;;;;;;5017262;28;20468;-70
2022/04/16 05:17:41;;;;;;;12.53;8.73;;;10.90;73.20;;;;;;5010563;28;21034;-70
2022/04/16 05:20:09;;;;;;;15.70;9.37;;;10.90;73.10;;;;;;5016054;28;20453;-70
2022/04/16 05:22:38;;;;;;;13.00;9.00;;;10.90;73.10;;;;;;5012790;28;20495;-72
2022/04/16 05:25:07;;;;;;;16.80;11.17;;;10.90;73.00;;;;;;5020935;28;20466;-70
2022/04/16 05:27:35;;;;;;;13.93;9.10;;;10.90;73.00;;;;;;5019418;28;20490;-71
2022/04/16 05:30:22;;;;;;;20.30;10.80;;;10.90;73.00;;;;;;5020595;28;20470;-72
2022/04/16 05:32:51;;;;;;;27.00;15.23;;;10.80;73.00;;;;;;5014228;28;20576;-71
2022/04/16 05:35:19;;;;;;;16.63;10.80;;;10.80;73.00;;;;;;5015421;28;20452;-71
2022/04/16 05:37:48;;;;;;;20.27;11.50;;;10.80;72.90;;;;;;5015710;28;20469;-71
2022/04/16 05:40:16;;;;;;;17.60;10.83;;;10.80;73.10;;;;;;5018231;28;21050;-71
2022/04/16 05:42:44;;;;;;;21.13;12.00;;;10.80;73.10;;;;;;5016963;28;20609;-71
2022/04/16 05:45:14;;;;;;;24.23;12.30;;;10.80;73.00;;;;;;5018628;28;20472;-71
2022/04/16 05:47:44;;;;;;;22.97;13.07;;;10.80;72.90;;;;;;5014241;28;20511;-71
2022/04/16 05:50:14;;;;;;;15.27;9.43;;;10.90;72.90;;;;;;5016022;28;20474;-72
2022/04/16 05:52:42;;;;;;;12.53;8.30;;;10.90;72.80;;;;;;5017785;28;21082;-71
2022/04/16 05:55:11;;;;;;;12.00;7.27;;;10.80;72.70;;;;;;5020098;28;20456;-71
2022/04/16 05:57:39;;;;;;;12.60;8.70;;;10.80;72.80;;;;;;5023655;28;20519;-72
2022/04/16 06:00:12;;;;;;;10.30;7.13;;;10.80;72.80;;;;;;5019934;28;21043;-69
2022/04/16 06:02:41;;;;;;;10.17;7.10;;;10.80;72.70;;;;;;5015929;28;20662;-70
2022/04/16 06:05:09;;;;;;;12.97;8.30;;;10.80;72.60;;;;;;5018898;28;20469;-72
2022/04/16 06:07:38;;;;;;;14.67;10.17;;;10.80;72.70;;;;;;5018457;28;20459;-71
2022/04/16 06:10:07;;;;;;;13.40;8.00;;;10.80;72.60;;;;;;5019388;28;21014;-70
2022/04/16 06:12:35;;;;;;;11.40;7.47;;;10.80;72.60;;;;;;5011193;28;20580;-70
2022/04/16 06:15:03;;;;;;;12.53;8.10;;;10.80;72.70;;;;;;5014005;28;20453;-71
2022/04/16 06:17:31;;;;;;;12.97;8.97;;;10.80;72.60;;;;;;4992239;28;20482;-71
2022/04/16 06:19:59;;;;;;;11.33;7.73;;;10.80;72.60;;;;;;4992261;28;20520;-69
2022/04/16 06:22:27;;;;;;;14.83;9.70;;;10.80;72.70;;;;;;4997434;28;20488;-70
2022/04/16 06:24:56;;;;;;;12.77;8.67;;;10.80;72.50;;;;;;4994693;28;20466;-72
2022/04/16 06:27:24;;;;;;;11.83;7.97;;;10.80;72.40;;;;;;4989050;28;20452;-71
2022/04/16 06:29:52;;;;;;;14.23;7.57;;;10.80;72.30;;;;;;4993949;28;20482;-70
2022/04/16 06:32:20;;;;;;;13.63;7.90;;;10.80;72.10;;;;;;5014278;28;20499;-70
2022/04/16 06:34:48;;;;;;;10.60;6.67;;;10.80;72.30;;;;;;5015312;28;20488;-70
2022/04/16 06:37:16;;;;;;;13.57;9.10;;;10.70;72.20;;;;;;5020984;28;20480;-70
2022/04/16 06:39:44;;;;;;;15.67;9.87;;;10.70;72.20;;;;;;5017827;28;20468;-70
2022/04/16 06:42:13;;;;;;;12.10;8.07;;;10.70;72.30;;;;;;5017001;28;20516;-72
2022/04/16 06:44:41;;;;;;;19.60;10.63;;;10.70;72.30;;;;;;5015646;28;20917;-71
2022/04/16 06:47:09;;;;;;;13.63;9.20;;;10.70;72.20;;;;;;5010971;28;20472;-72
2022/04/16 06:49:36;;;;;;;16.47;8.63;;;10.70;72.20;;;;;;5011982;28;20464;-69
2022/04/16 06:52:05;;;;;;;17.47;9.83;;;10.70;72.30;;;;;;5014527;28;20523;-71
2022/04/16 06:54:33;;;;;;;21.30;12.47;;;10.80;72.40;;;;;;5013396;28;20461;-71
2022/04/16 06:57:01;;;;;;;15.00;10.30;;;10.80;72.20;;;;;;5010681;28;20484;-71
2022/04/16 06:59:30;;;;;;;22.77;12.80;;;10.90;72.00;;;;;;5011573;28;20456;-71
2022/04/16 07:01:58;;;;;;;26.80;13.00;;;10.80;71.80;;;;;;5010365;28;20555;-71
2022/04/16 07:04:26;;;;;;;14.93;9.00;;;10.90;71.90;;;;;;5015172;28;20448;-71
2022/04/16 07:06:54;;;;;;;19.87;11.40;;;10.90;71.80;;;;;;5012609;28;20464;-71
2022/04/16 07:09:22;;;;;;;12.50;8.47;;;10.90;71.70;;;;;;5020379;28;20991;-71
2022/04/16 07:11:50;;;;;;;13.73;8.87;;;10.90;71.60;;;;;;5017884;28;20516;-71
2022/04/16 07:14:18;;;;;;;16.10;9.37;;;10.90;71.50;;;;;;5020114;28;20469;-71
2022/04/16 07:16:48;;;;;;;16.40;9.77;;;10.90;71.50;;;;;;5018281;28;21103;-71
2022/04/16 07:19:16;;;;;;;14.20;8.70;;;10.90;71.70;;;;;;5024642;28;20930;-71
2022/04/16 07:21:50;;;;;;;12.57;8.13;;;10.90;71.80;;;;;;5025608;28;20508;-71
2022/04/16 07:24:18;;;;;;;15.70;8.10;;;11.00;71.70;;;;;;5021316;28;20986;-71
2022/04/16 07:26:47;;;;;;;12.50;7.63;;;11.10;71.60;;;;;;5016651;28;20844;-71
2022/04/16 07:29:16;;;;;;;21.90;11.80;;;11.10;71.30;;;;;;5015279;28;20534;-71
2022/04/16 07:31:44;;;;;;;20.03;11.20;;;11.00;70.90;;;;;;5013824;28;20479;-71
2022/04/16 07:34:13;;;;;;;11.80;6.97;;;11.00;71.20;;;;;;5015603;28;20445;-71
2022/04/16 07:36:41;;;;;;;11.73;7.23;;;11.00;71.20;;;;;;5013992;28;20587;-71
2022/04/16 07:39:10;;;;;;;14.30;8.37;;;11.10;71.10;;;;;;5016505;28;20482;-71
2022/04/16 07:41:38;;;;;;;8.93;5.80;;;11.10;70.60;;;;;;5016281;28;20903;-71
2022/04/16 07:44:07;;;;;;;7.67;4.67;;;11.10;70.70;;;;;;5019186;28;20463;-72
2022/04/16 07:46:36;;;;;;;8.20;4.90;;;11.10;70.20;;;;;;5023586;28;20517;-71
2022/04/16 07:49:04;;;;;;;8.30;5.30;;;11.00;70.10;;;;;;5014612;28;20483;-70
2022/04/16 07:51:34;;;;;;;11.33;5.93;;;11.00;69.90;;;;;;5026039;28;20454;-71
2022/04/16 07:54:02;;;;;;;12.13;6.60;;;11.00;69.90;;;;;;5031220;28;20452;-71
2022/04/16 07:56:30;;;;;;;11.33;7.03;;;11.00;69.90;;;;;;5023445;28;20965;-70
2022/04/16 07:58:58;;;;;;;8.63;5.63;;;11.00;70.10;;;;;;5020474;28;21065;-70
2022/04/16 08:01:40;;;;;;;10.80;6.23;;;11.10;69.90;;;;;;5021298;28;20476;-70
2022/04/16 08:04:08;;;;;;;11.40;6.60;;;11.10;69.80;;;;;;5021216;28;20500;-70
2022/04/16 08:06:38;;;;;;;11.40;6.50;;;11.10;69.70;;;;;;5017731;28;20465;-71
2022/04/16 08:09:06;;;;;;;12.63;7.57;;;11.10;69.70;;;;;;5019107;28;20501;-71
2022/04/16 08:11:34;;;;;;;11.00;6.17;;;11.10;69.50;;;;;;5020955;28;20483;-71
2022/04/16 08:14:02;;;;;;;7.57;4.43;;;11.10;69.20;;;;;;5017336;28;20450;-70
2022/04/16 08:16:30;;;;;;;8.33;4.80;;;11.00;69.00;;;;;;5019390;28;20468;-70
2022/04/16 08:18:58;;;;;;;8.90;6.27;;;11.00;68.50;;;;;;5018528;28;20483;-70
2022/04/16 08:21:26;;;;;;;8.43;5.47;;;11.10;68.70;;;;;;5014897;28;20461;-70
2022/04/16 08:24:03;;;;;;;9.07;5.53;;;11.10;68.80;;;;;;5021439;28;20467;-70
2022/04/16 08:26:32;;;;;;;7.83;5.17;;;11.20;68.60;;;;;;5023464;28;20534;-70
2022/04/16 08:29:00;;;;;;;11.70;7.57;;;11.20;68.70;;;;;;5019725;28;20471;-71
2022/04/16 08:31:28;;;;;;;12.00;8.30;;;11.20;68.40;;;;;;5018474;28;20480;-70
2022/04/16 08:33:56;;;;;;;10.20;7.40;;;11.20;68.90;;;;;;5017070;28;20837;-70
2022/04/16 08:36:24;;;;;;;12.00;7.40;;;11.20;68.90;;;;;;5019477;28;20474;-70
2022/04/16 08:38:53;;;;;;;11.63;8.27;;;11.20;68.70;;;;;;5016548;28;20492;-70
2022/04/16 08:41:26;;;;;;;9.40;5.80;;;11.30;68.90;;;;;;5019501;28;20450;-71
2022/04/16 08:43:54;;;;;;;9.70;6.37;;;11.30;68.80;;;;;;5014880;28;20460;-70
2022/04/16 08:46:23;;;;;;;10.80;7.00;;;11.40;68.80;;;;;;5018067;28;20486;-70
2022/04/16 08:48:51;;;;;;;15.53;12.00;;;11.50;68.60;;;;;;5011487;28;20440;-70
2022/04/16 08:51:20;;;;;;;17.00;10.47;;;11.50;68.40;;;;;;5016410;28;20510;-70
2022/04/16 08:53:48;;;;;;;10.03;6.17;;;11.60;67.90;;;;;;5017812;28;20939;-70
2022/04/16 08:56:16;;;;;;;10.43;5.30;;;11.60;68.30;;;;;;5017646;28;20985;-70
2022/04/16 08:58:45;;;;;;;13.57;6.83;;;11.60;67.40;;;;;;5014065;28;20524;-70
2022/04/16 09:01:13;;;;;;;16.90;6.60;;;11.60;67.50;;;;;;5018072;28;20492;-70
2022/04/16 09:03:42;;;;;;;18.70;8.90;;;11.60;67.70;;;;;;5019453;28;20575;-70
2022/04/16 09:06:10;;;;;;;23.50;9.20;;;11.60;67.80;;;;;;5021747;28;20453;-70
2022/04/16 09:08:38;;;;;;;17.33;8.93;;;11.70;67.40;;;;;;5017575;28;20461;-70
2022/04/16 09:11:07;;;;;;;13.00;7.20;;;11.70;67.30;;;;;;5019016;28;20462;-71
2022/04/16 09:13:35;;;;;;;10.27;5.83;;;11.70;67.40;;;;;;5021198;28;21052;-70
2022/04/16 09:16:05;;;;;;;9.80;5.90;;;11.70;67.10;;;;;;5015794;28;21016;-70
2022/04/16 09:18:45;;;;;;;9.50;5.63;;;11.80;66.80;;;;;;5010989;28;20475;-71
2022/04/16 09:21:14;;;;;;;17.67;10.20;;;11.80;66.30;;;;;;5012291;28;20475;-70
2022/04/16 09:23:48;;;;;;;12.03;5.10;;;11.80;66.40;;;;;;5015546;28;20495;-70
2022/04/16 09:26:26;;;;;;;9.67;5.23;;;11.90;66.00;;;;;;5012318;28;20474;-70
2022/04/16 09:28:55;;;;;;;12.07;6.47;;;12.00;66.10;;;;;;5017069;28;21000;-70
2022/04/16 09:31:33;;;;;;;8.07;4.93;;;12.00;66.00;;;;;;5015879;28;20508;-70
2022/04/16 09:34:01;;;;;;;7.73;4.27;;;12.00;65.20;;;;;;5017163;28;20468;-70
2022/04/16 09:36:30;;;;;;;9.43;4.93;;;12.10;65.00;;;;;;5016184;28;20464;-70
2022/04/16 09:39:02;;;;;;;10.00;5.33;;;12.10;64.40;;;;;;5013831;28;20477;-70
2022/04/16 09:41:39;;;;;;;9.83;4.93;;;12.00;63.80;;;;;;5017049;28;20448;-70
2022/04/16 09:44:17;;;;;;;7.90;4.23;;;12.00;63.70;;;;;;5018019;28;20448;-70
2022/04/16 09:46:55;;;;;;;7.87;5.10;;;12.00;62.90;;;;;;5013432;28;20481;-70
2022/04/16 09:49:24;;;;;;;9.40;4.70;;;11.90;63.30;;;;;;5013302;28;21017;-70
2022/04/16 09:51:52;;;;;;;8.47;4.73;;;12.00;63.00;;;;;;5011570;28;20477;-70
2022/04/16 09:54:21;;;;;;;6.53;4.00;;;12.00;62.50;;;;;;5014413;28;20960;-69
2022/04/16 09:56:50;;;;;;;7.20;4.03;;;12.00;62.40;;;;;;5014223;28;20645;-70
2022/04/16 09:59:18;;;;;;;7.63;4.30;;;12.00;62.20;;;;;;5010746;28;20476;-71
2022/04/16 10:01:50;;;;;;;10.50;5.27;;;12.10;62.50;;;;;;5009182;28;20493;-69
2022/04/16 10:04:20;;;;;;;12.77;5.67;;;12.10;62.10;;;;;;5012762;28;21060;-70
2022/04/16 10:06:51;;;;;;;8.40;5.20;;;12.10;62.50;;;;;;5015891;28;20475;-70
2022/04/16 10:09:22;;;;;;;10.80;5.90;;;12.20;62.30;;;;;;5012676;28;21012;-70
2022/04/16 10:14:47;;;;;;;6.07;3.80;;;12.30;61.50;;;;;;5010739;28;20561;-71
2022/04/16 10:17:28;;;;;;;8.30;4.63;;;12.20;60.90;;;;;;5009190;28;21099;-71
2022/04/16 10:20:09;;;;;;;7.30;4.33;;;12.20;60.80;;;;;;5013716;28;20486;-71
2022/04/16 10:22:37;;;;;;;6.90;4.20;;;12.20;60.20;;;;;;5024276;28;20484;-72
2022/04/16 10:25:07;;;;;;;6.03;3.80;;;12.30;59.90;;;;;;5009541;28;20514;-72
2022/04/16 10:27:40;;;;;;;8.30;4.80;;;12.30;60.10;;;;;;5013945;28;20540;-71
2022/04/16 10:30:12;;;;;;;10.67;6.40;;;12.30;60.30;;;;;;5014288;28;20966;-70
2022/04/16 10:32:42;;;;;;;24.43;10.20;;;12.30;60.00;;;;;;5011956;28;20842;-70
2022/04/16 10:35:15;;;;;;;10.33;6.20;;;12.30;60.20;;;;;;5017957;28;20514;-70
2022/04/16 10:37:44;;;;;;;6.13;3.50;;;12.40;60.30;;;;;;5017352;28;20471;-69
2022/04/16 10:40:18;;;;;;;6.07;3.57;;;12.50;60.40;;;;;;5028635;28;20501;-69
2022/04/16 10:42:51;;;;;;;18.37;9.87;;;12.60;60.10;;;;;;5021630;28;20496;-70
2022/04/16 10:45:21;;;;;;;14.13;11.20;;;12.60;59.00;;;;;;5018076;28;20468;-70
2022/04/16 10:47:50;;;;;;;8.97;5.67;;;12.60;59.10;;;;;;5012419;28;21211;-69
2022/04/16 10:50:21;;;;;;;9.00;5.03;;;12.60;59.30;;;;;;5017195;28;20453;-70
2022/04/16 10:52:57;;;;;;;14.27;11.10;;;12.70;57.90;;;;;;5013901;28;21027;-69
2022/04/16 10:55:30;;;;;;;10.63;6.83;;;12.70;58.70;;;;;;5020175;28;20509;-71
2022/04/16 10:58:01;;;;;;;10.80;6.33;;;12.60;57.30;;;;;;5011368;28;20464;-69
2022/04/16 11:00:40;;;;;;;12.60;7.30;;;12.60;58.20;;;;;;5009427;28;20558;-70
2022/04/16 11:03:09;;;;;;;8.30;4.13;;;12.60;58.50;;;;;;5014477;28;20472;-69
2022/04/16 11:05:41;;;;;;;6.90;3.13;;;12.50;57.00;;;;;;5017918;28;20474;-70
2022/04/16 11:08:12;;;;;;;7.53;4.23;;;12.60;57.80;;;;;;5029450;28;20538;-69
2022/04/16 11:10:42;;;;;;;9.17;5.80;;;12.60;57.70;;;;;;5019569;28;20976;-71
2022/04/16 11:13:11;;;;;;;9.80;5.07;;;12.60;57.30;;;;;;5019465;28;20471;-70
2022/04/16 11:15:41;;;;;;;7.93;4.47;;;12.70;57.20;;;;;;5017859;28;20890;-70
2022/04/16 11:18:11;;;;;;;5.43;2.93;;;12.60;56.20;;;;;;5017493;28;20949;-69
2022/04/16 11:20:42;;;;;;;9.73;3.97;;;12.60;57.00;;;;;;5018116;28;20505;-70
2022/04/16 11:23:11;;;;;;;7.97;3.57;;;12.60;57.00;;;;;;5016228;28;20523;-70
2022/04/16 11:34:18;;;;;;;15.27;6.47;;;12.80;55.70;;;;;;5023300;28;20961;-70
2022/04/16 11:36:51;;;;;;;8.67;3.57;;;12.80;55.40;;;;;;5018720;28;20459;-70
2022/04/16 11:39:20;;;;;;;5.30;3.27;;;12.80;54.70;;;;;;5019799;28;21207;-69
2022/04/16 11:41:52;;;;;;;9.70;4.67;;;12.90;54.90;;;;;;5020401;28;21017;-71
2022/04/16 11:44:32;;;;;;;5.70;2.80;;;12.90;55.00;;;;;;5023411;28;20888;-69
2022/04/16 11:47:02;;;;;;;6.13;2.73;;;13.00;54.60;;;;;;5018292;28;20476;-71
2022/04/16 11:49:31;;;;;;;7.50;4.67;;;13.00;54.20;;;;;;5021328;28;20456;-70
2022/04/16 11:52:01;;;;;;;5.00;3.00;;;13.10;53.80;;;;;;5025116;28;20468;-70
2022/04/16 11:54:29;;;;;;;10.00;4.37;;;13.20;53.70;;;;;;5024363;28;20519;-70
2022/04/16 11:56:57;;;;;;;8.40;3.70;;;13.10;52.00;;;;;;5022107;28;21011;-70
2022/04/16 11:59:26;;;;;;;7.37;4.00;;;13.20;52.80;;;;;;5024744;28;20493;-70
2022/04/16 12:02:05;;;;;;;9.30;3.10;;;13.20;51.70;;;;;;5022658;28;20484;-70
2022/04/16 12:04:39;;;;;;;5.20;2.67;;;13.20;52.80;;;;;;5018658;28;20542;-70
2022/04/16 12:07:17;;;;;;;6.77;3.30;;;13.30;52.60;;;;;;5018863;28;20898;-70
2022/04/16 12:09:46;;;;;;;5.87;3.17;;;13.30;51.30;;;;;;5017654;28;20522;-70
2022/04/16 12:12:15;;;;;;;5.77;3.00;;;13.40;51.00;;;;;;5014817;28;20965;-70
2022/04/16 12:14:47;;;;;;;5.27;2.87;;;13.40;51.60;;;;;;5015885;28;20597;-70
2022/04/16 12:17:26;;;;;;;6.07;2.73;;;13.40;50.70;;;;;;5019465;28;20505;-70
2022/04/16 12:19:58;;;;;;;4.67;2.80;;;13.50;50.50;;;;;;5021280;28;20506;-70
2022/04/16 12:22:27;;;;;;;6.70;3.40;;;13.50;50.10;;;;;;5026343;28;20485;-70
2022/04/16 12:24:56;;;;;;;4.90;3.00;;;13.60;49.80;;;;;;5034719;28;20463;-70
2022/04/16 12:27:27;;;;;;;6.10;3.30;;;13.60;48.60;;;;;;5021802;28;21148;-70
2022/04/16 12:29:56;;;;;;;5.10;3.30;;;13.70;48.80;;;;;;5013816;28;20467;-70
2022/04/16 12:32:27;;;;;;;7.50;3.87;;;13.70;48.00;;;;;;5016256;28;20481;-70
2022/04/16 12:34:55;;;;;;;6.87;3.50;;;13.70;47.50;;;;;;5015903;28;20975;-70
2022/04/16 12:37:23;;;;;;;10.17;3.30;;;13.80;46.50;;;;;;5016554;28;20461;-70
2022/04/16 12:39:53;;;;;;;6.60;3.47;;;13.80;47.00;;;;;;5016629;28;20853;-70
2022/04/16 12:42:20;;;;;;;7.27;3.83;;;13.80;46.80;;;;;;5010672;28;20488;-71
2022/04/16 12:44:54;;;;;;;7.33;3.60;;;13.80;47.20;;;;;;5011595;28;20519;-70
2022/04/16 12:47:22;;;;;;;8.43;4.00;;;13.80;47.30;;;;;;5017206;28;20515;-70
2022/04/16 12:49:50;;;;;;;7.07;3.57;;;13.90;47.10;;;;;;5016409;28;20448;-71
2022/04/16 12:52:18;;;;;;;7.77;3.90;;;13.90;47.30;;;;;;5022542;28;20487;-70
2022/04/16 12:54:46;;;;;;;5.87;3.33;;;14.00;47.20;;;;;;5020926;28;20457;-70
2022/04/16 12:57:15;;;;;;;6.60;3.67;;;14.10;46.10;;;;;;5018770;28;20443;-71
2022/04/16 12:59:43;;;;;;;6.10;2.97;;;14.10;45.90;;;;;;5013317;28;20464;-71
2022/04/16 13:02:11;;;;;;;4.90;3.23;;;14.10;46.10;;;;;;5011824;28;20489;-70
2022/04/16 13:04:39;;;;;;;7.20;3.67;;;14.10;45.70;;;;;;5012388;28;20453;-70
2022/04/16 13:07:07;;;;;;;5.00;2.97;;;14.00;46.10;;;;;;5014013;28;20506;-70
2022/04/16 13:09:35;;;;;;;5.10;2.87;;;14.10;45.50;;;;;;5014184;28;20441;-70
2022/04/16 13:12:03;;;;;;;7.40;4.73;;;14.10;45.50;;;;;;5022249;28;20482;-71